sensor_id;sensor_type;location;lat;lon;timestamp;pressure;altitude;pressure_sealevel;temperature;humidity
50774;BME280;36745;48.544;8.918;2023-05-16T00:01:54;97034.03;;;11.44;100.00
50774;BME280;36745;48.544;8.918;2023-05-16T00:05:14;97036.03;;;11.43;100.00
50774;BME280;36745;48.544;8.918;2023-05-16T00:08:34;97033.38;;;11.40;100.00
50774;BME280;36745;48.544;8.918;2023-05-16T00:11:54;97029.41;;;11.41;100.00
50774;BME280;36745;48.544;8.918;2023-05-16T00:15:13;97032.59;;;11.39;100.00
50774;BME280;36745;48.544;8.918;2023-05-16T00:18:34;97023.25;;;11.36;100.00
50774;BME280;36745;48.544;8.918;2023-05-16T00:21:56;97018.69;;;11.43;100.00
50774;BME280;36745;48.544;8.918;2023-05-16T00:25:15;97023.63;;;11.48;100.00
50774;BME280;36745;48.544;8.918;2023-05-16T00:28:35;97028.50;;;11.44;100.00
50774;BME280;36745;48.544;8.918;2023-05-16T00:31:55;97018.06;;;11.39;100.00
50774;BME280;36745;48.544;8.918;2023-05-16T00:35:15;97021.09;;;11.31;100.00
50774;BME280;36745;48.544;8.918;2023-05-16T00:38:34;97025.97;;;11.27;100.00
50774;BME280;36745;48.544;8.918;2023-05-16T00:41:55;97026.88;;;11.24;100.00
50774;BME280;36745;48.544;8.918;2023-05-16T00:45:15;97019.50;;;11.21;100.00
50774;BME280;36745;48.544;8.918;2023-05-16T00:48:35;97017.63;;;11.18;100.00
50774;BME280;36745;48.544;8.918;2023-05-16T00:51:57;97026.19;;;11.11;100.00
50774;BME280;36745;48.544;8.918;2023-05-16T00:55:17;97026.78;;;11.06;100.00
50774;BME280;36745;48.544;8.918;2023-05-16T00:58:37;97023.69;;;11.04;100.00
50774;BME280;36745;48.544;8.918;2023-05-16T01:01:56;97024.00;;;11.06;100.00
50774;BME280;36745;48.544;8.918;2023-05-16T01:05:17;97025.53;;;11.07;100.00
50774;BME280;36745;48.544;8.918;2023-05-16T01:08:36;97023.53;;;11.08;100.00
50774;BME280;36745;48.544;8.918;2023-05-16T01:15:55;97022.34;;;11.09;100.00
50774;BME280;36745;48.544;8.918;2023-05-16T01:19:40;97019.72;;;11.05;100.00
50774;BME280;36745;48.544;8.918;2023-05-16T01:26:44;97027.66;;;11.03;100.00
50774;BME280;36745;48.544;8.918;2023-05-16T01:30:23;97031.97;;;11.04;100.00
50774;BME280;36745;48.544;8.918;2023-05-16T01:33:42;97033.94;;;11.04;100.00
50774;BME280;36745;48.544;8.918;2023-05-16T01:37:12;97027.66;;;11.03;100.00
50774;BME280;36745;48.544;8.918;2023-05-16T01:40:37;97028.00;;;11.05;100.00
50774;BME280;36745;48.544;8.918;2023-05-16T01:44:04;97030.13;;;11.01;100.00
50774;BME280;36745;48.544;8.918;2023-05-16T01:47:26;97036.38;;;11.02;100.00
50774;BME280;36745;48.544;8.918;2023-05-16T01:50:54;97031.63;;;11.02;100.00
50774;BME280;36745;48.544;8.918;2023-05-16T01:54:17;97029.00;;;10.99;100.00
50774;BME280;36745;48.544;8.918;2023-05-16T01:57:37;97025.81;;;11.00;100.00
50774;BME280;36745;48.544;8.918;2023-05-16T02:01:00;97027.66;;;11.03;100.00
50774;BME280;36745;48.544;8.918;2023-05-16T02:04:22;97028.44;;;11.04;100.00
50774;BME280;36745;48.544;8.918;2023-05-16T02:07:43;97032.41;;;11.03;100.00
50774;BME280;36745;48.544;8.918;2023-05-16T02:11:03;97022.13;;;11.03;100.00
50774;BME280;36745;48.544;8.918;2023-05-16T02:14:23;97029.84;;;11.08;100.00
50774;BME280;36745;48.544;8.918;2023-05-16T02:17:44;97030.16;;;11.10;100.00
50774;BME280;36745;48.544;8.918;2023-05-16T02:21:04;97029.44;;;11.19;100.00
50774;BME280;36745;48.544;8.918;2023-05-16T02:24:24;97035.09;;;11.15;100.00
50774;BME280;36745;48.544;8.918;2023-05-16T02:27:44;97027.25;;;11.14;100.00
50774;BME280;36745;48.544;8.918;2023-05-16T02:31:04;97022.50;;;11.14;100.00
50774;BME280;36745;48.544;8.918;2023-05-16T02:34:23;97032.16;;;11.10;100.00
50774;BME280;36745;48.544;8.918;2023-05-16T02:37:43;97029.25;;;11.13;100.00
50774;BME280;36745;48.544;8.918;2023-05-16T02:41:03;97032.66;;;11.17;100.00
50774;BME280;36745;48.544;8.918;2023-05-16T02:44:23;97024.94;;;11.12;100.00
50774;BME280;36745;48.544;8.918;2023-05-16T02:47:42;97027.41;;;11.10;100.00
50774;BME280;36745;48.544;8.918;2023-05-16T02:51:02;97026.13;;;11.02;100.00
50774;BME280;36745;48.544;8.918;2023-05-16T02:54:22;97036.84;;;11.00;100.00
50774;BME280;36745;48.544;8.918;2023-05-16T02:57:42;97031.19;;;11.04;100.00
50774;BME280;36745;48.544;8.918;2023-05-16T03:01:02;97031.91;;;11.17;100.00
50774;BME280;36745;48.544;8.918;2023-05-16T03:04:21;97028.94;;;11.11;100.00
50774;BME280;36745;48.544;8.918;2023-05-16T03:07:42;97022.50;;;11.14;100.00
50774;BME280;36745;48.544;8.918;2023-05-16T03:11:02;97018.53;;;11.15;100.00
50774;BME280;36745;48.544;8.918;2023-05-16T03:14:21;97025.47;;;11.20;100.00
50774;BME280;36745;48.544;8.918;2023-05-16T03:17:41;97032.00;;;11.13;100.00
50774;BME280;36745;48.544;8.918;2023-05-16T03:21:01;97017.00;;;11.14;100.00
50774;BME280;36745;48.544;8.918;2023-05-16T03:24:21;97027.41;;;11.10;100.00
50774;BME280;36745;48.544;8.918;2023-05-16T03:27:41;97030.16;;;11.10;100.00
50774;BME280;36745;48.544;8.918;2023-05-16T03:31:00;97036.91;;;11.09;100.00
50774;BME280;36745;48.544;8.918;2023-05-16T03:34:20;97030.16;;;11.10;100.00
50774;BME280;36745;48.544;8.918;2023-05-16T03:37:40;97035.09;;;11.15;100.00
50774;BME280;36745;48.544;8.918;2023-05-16T03:41:00;97019.75;;;11.14;100.00
50774;BME280;36745;48.544;8.918;2023-05-16T03:44:20;97028.03;;;11.14;100.00
50774;BME280;36745;48.544;8.918;2023-05-16T03:47:40;97027.16;;;11.17;100.00
50774;BME280;36745;48.544;8.918;2023-05-16T03:51:00;97033.09;;;11.16;100.00
50774;BME280;36745;48.544;8.918;2023-05-16T03:54:21;97036.63;;;11.16;100.00
50774;BME280;36745;48.544;8.918;2023-05-16T03:57:41;97032.34;;;11.15;100.00
50774;BME280;36745;48.544;8.918;2023-05-16T04:01:01;97039.44;;;11.25;100.00
50774;BME280;36745;48.544;8.918;2023-05-16T04:04:20;97028.41;;;11.25;100.00
50774;BME280;36745;48.544;8.918;2023-05-16T04:07:40;97031.50;;;11.27;100.00
50774;BME280;36745;48.544;8.918;2023-05-16T04:11:00;97040.06;;;11.29;100.00
50774;BME280;36745;48.544;8.918;2023-05-16T04:14:20;97042.91;;;11.39;100.00
50774;BME280;36745;48.544;8.918;2023-05-16T04:17:40;97042.75;;;11.42;100.00
50774;BME280;36745;48.544;8.918;2023-05-16T04:21:00;97045.06;;;11.44;100.00
50774;BME280;36745;48.544;8.918;2023-05-16T04:24:19;97044.94;;;11.47;100.00
50774;BME280;36745;48.544;8.918;2023-05-16T04:27:39;97048.13;;;11.46;100.00
50774;BME280;36745;48.544;8.918;2023-05-16T04:30:59;97059.16;;;11.46;100.00
50774;BME280;36745;48.544;8.918;2023-05-16T04:34:19;97057.97;;;11.47;100.00
50774;BME280;36745;48.544;8.918;2023-05-16T04:37:39;97060.72;;;11.47;100.00
50774;BME280;36745;48.544;8.918;2023-05-16T04:40:59;97058.91;;;11.53;100.00
50774;BME280;36745;48.544;8.918;2023-05-16T04:44:20;97059.81;;;11.50;100.00
50774;BME280;36745;48.544;8.918;2023-05-16T04:47:40;97061.66;;;11.53;100.00
50774;BME280;36745;48.544;8.918;2023-05-16T04:51:00;97059.88;;;11.59;100.00
50774;BME280;36745;48.544;8.918;2023-05-16T04:54:20;97057.72;;;11.63;100.00
50774;BME280;36745;48.544;8.918;2023-05-16T04:57:40;97062.22;;;11.69;100.00
50774;BME280;36745;48.544;8.918;2023-05-16T05:01:00;97057.47;;;11.70;100.00
50774;BME280;36745;48.544;8.918;2023-05-16T05:04:19;97057.13;;;11.68;100.00
50774;BME280;36745;48.544;8.918;2023-05-16T05:07:40;97067.63;;;11.73;100.00
50774;BME280;36745;48.544;8.918;2023-05-16T05:11:01;97067.94;;;11.75;100.00
50774;BME280;36745;48.544;8.918;2023-05-16T05:14:21;97066.72;;;11.76;100.00
50774;BME280;36745;48.544;8.918;2023-05-16T05:17:41;97074.41;;;11.81;100.00
50774;BME280;36745;48.544;8.918;2023-05-16T05:21:01;97066.91;;;11.82;100.00
50774;BME280;36745;48.544;8.918;2023-05-16T05:24:20;97062.88;;;11.73;100.00
50774;BME280;36745;48.544;8.918;2023-05-16T05:27:40;97072.63;;;11.65;100.00
50774;BME280;36745;48.544;8.918;2023-05-16T05:31:00;97069.41;;;11.67;100.00
50774;BME280;36745;48.544;8.918;2023-05-16T05:34:20;97076.47;;;11.68;100.00
50774;BME280;36745;48.544;8.918;2023-05-16T05:37:40;97074.03;;;11.70;100.00
50774;BME280;36745;48.544;8.918;2023-05-16T05:41:00;97073.13;;;11.73;100.00
50774;BME280;36745;48.544;8.918;2023-05-16T05:44:20;97075.22;;;11.60;100.00
50774;BME280;36745;48.544;8.918;2023-05-16T05:47:39;97087.03;;;11.60;100.00
50774;BME280;36745;48.544;8.918;2023-05-16T05:50:59;97081.00;;;11.53;100.00
50774;BME280;36745;48.544;8.918;2023-05-16T05:54:19;97089.59;;;11.55;100.00
50774;BME280;36745;48.544;8.918;2023-05-16T05:57:39;97083.94;;;11.58;100.00
50774;BME280;36745;48.544;8.918;2023-05-16T06:00:59;97101.38;;;11.55;100.00
50774;BME280;36745;48.544;8.918;2023-05-16T06:04:20;97091.78;;;11.60;100.00
50774;BME280;36745;48.544;8.918;2023-05-16T06:07:39;97095.44;;;11.57;100.00
50774;BME280;36745;48.544;8.918;2023-05-16T06:10:59;97091.19;;;11.65;100.00
50774;BME280;36745;48.544;8.918;2023-05-16T06:14:19;97100.19;;;11.56;100.00
50774;BME280;36745;48.544;8.918;2023-05-16T06:17:39;97095.59;;;11.62;100.00
50774;BME280;36745;48.544;8.918;2023-05-16T06:20:59;97097.78;;;11.67;100.00
50774;BME280;36745;48.544;8.918;2023-05-16T06:24:19;97106.16;;;11.76;100.00
50774;BME280;36745;48.544;8.918;2023-05-16T06:27:38;97119.75;;;11.71;100.00
50774;BME280;36745;48.544;8.918;2023-05-16T06:31:01;97104.69;;;11.72;100.00
50774;BME280;36745;48.544;8.918;2023-05-16T06:34:21;97114.88;;;11.75;100.00
50774;BME280;36745;48.544;8.918;2023-05-16T06:37:46;97114.63;;;11.60;100.00
50774;BME280;36745;48.544;8.918;2023-05-16T06:41:09;97121.44;;;11.47;100.00
50774;BME280;36745;48.544;8.918;2023-05-16T06:44:29;97117.13;;;11.46;100.00
50774;BME280;36745;48.544;8.918;2023-05-16T06:47:48;97123.13;;;11.44;100.00
50774;BME280;36745;48.544;8.918;2023-05-16T06:51:08;97115.53;;;11.35;100.00
50774;BME280;36745;48.544;8.918;2023-05-16T06:54:28;97112.97;;;11.19;100.00
50774;BME280;36745;48.544;8.918;2023-05-16T06:57:48;97117.88;;;11.15;100.00
50774;BME280;36745;48.544;8.918;2023-05-16T07:01:08;97117.91;;;11.24;100.00
50774;BME280;36745;48.544;8.918;2023-05-16T07:04:28;97120.25;;;11.26;100.00
50774;BME280;36745;48.544;8.918;2023-05-16T07:07:48;97120.00;;;11.33;100.00
50774;BME280;36745;48.544;8.918;2023-05-16T07:11:08;97124.00;;;11.19;100.00
50774;BME280;36745;48.544;8.918;2023-05-16T07:14:30;97126.84;;;11.28;100.00
50774;BME280;36745;48.544;8.918;2023-05-16T07:17:49;97125.19;;;11.31;100.00
50774;BME280;36745;48.544;8.918;2023-05-16T07:21:09;97132.88;;;11.36;100.00
50774;BME280;36745;48.544;8.918;2023-05-16T07:24:30;97134.91;;;11.45;100.00
50774;BME280;36745;48.544;8.918;2023-05-16T07:27:49;97133.41;;;11.44;100.00
50774;BME280;36745;48.544;8.918;2023-05-16T07:31:09;97128.66;;;11.44;100.00
50774;BME280;36745;48.544;8.918;2023-05-16T07:34:29;97136.47;;;11.46;100.00
50774;BME280;36745;48.544;8.918;2023-05-16T07:37:49;97134.56;;;11.33;100.00
50774;BME280;36745;48.544;8.918;2023-05-16T07:41:09;97134.66;;;11.30;100.00
50774;BME280;36745;48.544;8.918;2023-05-16T07:44:29;97137.88;;;11.28;100.00
50774;BME280;36745;48.544;8.918;2023-05-16T07:47:49;97144.06;;;11.32;100.00
50774;BME280;36745;48.544;8.918;2023-05-16T07:51:09;97142.75;;;11.24;100.00
50774;BME280;36745;48.544;8.918;2023-05-16T07:54:29;97149.81;;;11.25;100.00
50774;BME280;36745;48.544;8.918;2023-05-16T07:57:50;97149.28;;;11.40;100.00
50774;BME280;36745;48.544;8.918;2023-05-16T08:01:09;97153.97;;;11.30;100.00
50774;BME280;36745;48.544;8.918;2023-05-16T08:04:30;97157.75;;;11.23;100.00
50774;BME280;36745;48.544;8.918;2023-05-16T08:07:50;97154.31;;;11.32;100.00
50774;BME280;36745;48.544;8.918;2023-05-16T08:11:09;97156.69;;;11.21;100.00
50774;BME280;36745;48.544;8.918;2023-05-16T08:14:30;97154.94;;;11.14;100.00
50774;BME280;36745;48.544;8.918;2023-05-16T08:17:55;97169.31;;;11.09;100.00
50774;BME280;36745;48.544;8.918;2023-05-16T08:21:15;97172.72;;;11.13;100.00
50774;BME280;36745;48.544;8.918;2023-05-16T08:24:35;97167.00;;;11.29;100.00
50774;BME280;36745;48.544;8.918;2023-05-16T08:27:55;97167.69;;;11.33;100.00
50774;BME280;36745;48.544;8.918;2023-05-16T08:31:15;97164.59;;;11.31;100.00
50774;BME280;36745;48.544;8.918;2023-05-16T08:34:34;97163.94;;;11.27;100.00
50774;BME280;36745;48.544;8.918;2023-05-16T08:37:55;97169.72;;;11.20;100.00
50774;BME280;36745;48.544;8.918;2023-05-16T08:41:14;97176.63;;;11.25;100.00
50774;BME280;36745;48.544;8.918;2023-05-16T08:44:34;97173.03;;;11.15;100.00
50774;BME280;36745;48.544;8.918;2023-05-16T08:47:54;97180.41;;;11.18;100.00
50774;BME280;36745;48.544;8.918;2023-05-16T08:51:19;97180.38;;;11.31;100.00
50774;BME280;36745;48.544;8.918;2023-05-16T08:54:39;97184.72;;;11.19;100.00
50774;BME280;36745;48.544;8.918;2023-05-16T08:57:59;97192.69;;;11.17;100.00
50774;BME280;36745;48.544;8.918;2023-05-16T09:01:21;97185.72;;;11.13;100.00
50774;BME280;36745;48.544;8.918;2023-05-16T09:04:42;97189.72;;;11.12;100.00
50774;BME280;36745;48.544;8.918;2023-05-16T09:08:01;97188.69;;;11.18;100.00
50774;BME280;36745;48.544;8.918;2023-05-16T09:11:22;97192.69;;;11.17;100.00
50774;BME280;36745;48.544;8.918;2023-05-16T09:14:42;97198.94;;;11.18;100.00
50774;BME280;36745;48.544;8.918;2023-05-16T09:18:02;97196.38;;;11.23;100.00
50774;BME280;36745;48.544;8.918;2023-05-16T09:21:33;97190.22;;;11.19;100.00
50774;BME280;36745;48.544;8.918;2023-05-16T09:24:53;97194.53;;;11.20;100.00
50774;BME280;36745;48.544;8.918;2023-05-16T09:28:13;97195.50;;;11.26;100.00
50774;BME280;36745;48.544;8.918;2023-05-16T09:31:32;97195.91;;;11.38;100.00
50774;BME280;36745;48.544;8.918;2023-05-16T09:34:56;97188.97;;;11.33;100.00
50774;BME280;36745;48.544;8.918;2023-05-16T09:38:17;97203.22;;;11.31;100.00
50774;BME280;36745;48.544;8.918;2023-05-16T09:41:37;97202.56;;;11.27;100.00
50774;BME280;36745;48.544;8.918;2023-05-16T09:44:57;97204.56;;;11.27;100.00
50774;BME280;36745;48.544;8.918;2023-05-16T09:48:17;97195.28;;;11.33;100.00
50774;BME280;36745;48.544;8.918;2023-05-16T09:51:36;97205.94;;;11.44;100.00
50774;BME280;36745;48.544;8.918;2023-05-16T09:54:57;97195.44;;;11.39;100.00
50774;BME280;36745;48.544;8.918;2023-05-16T09:58:17;97192.88;;;11.45;100.00
50774;BME280;36745;48.544;8.918;2023-05-16T10:01:36;97197.31;;;11.42;100.00
50774;BME280;36745;48.544;8.918;2023-05-16T10:04:56;97188.31;;;11.51;100.00
50774;BME280;36745;48.544;8.918;2023-05-16T10:08:16;97189.91;;;11.61;100.00
50774;BME280;36745;48.544;8.918;2023-05-16T10:11:37;97190.25;;;11.63;100.00
50774;BME280;36745;48.544;8.918;2023-05-16T10:15:00;97192.75;;;11.70;100.00
50774;BME280;36745;48.544;8.918;2023-05-16T10:18:20;97193.34;;;11.65;100.00
50774;BME280;36745;48.544;8.918;2023-05-16T10:21:43;97182.13;;;11.81;100.00
50774;BME280;36745;48.544;8.918;2023-05-16T10:25:16;97188.72;;;11.84;100.00
50774;BME280;36745;48.544;8.918;2023-05-16T10:28:39;97186.22;;;11.98;100.00
50774;BME280;36745;48.544;8.918;2023-05-16T10:31:59;97187.66;;;11.81;100.00
50774;BME280;36745;48.544;8.918;2023-05-16T10:35:19;97188.91;;;11.89;100.00
50774;BME280;36745;48.544;8.918;2023-05-16T10:38:40;97199.66;;;11.87;100.00
50774;BME280;36745;48.544;8.918;2023-05-16T10:42:00;97189.66;;;11.68;100.00
50774;BME280;36745;48.544;8.918;2023-05-16T10:45:21;97189.91;;;11.61;100.00
50774;BME280;36745;48.544;8.918;2023-05-16T10:48:41;97185.69;;;11.69;100.00
50774;BME280;36745;48.544;8.918;2023-05-16T10:52:09;97190.09;;;11.79;100.00
50774;BME280;36745;48.544;8.918;2023-05-16T10:55:30;97186.44;;;11.82;100.00
50774;BME280;36745;48.544;8.918;2023-05-16T10:58:52;97187.72;;;11.99;100.00
50774;BME280;36745;48.544;8.918;2023-05-16T11:05:50;97194.75;;;11.91;100.00
50774;BME280;36745;48.544;8.918;2023-05-16T11:12:48;97205.41;;;12.02;100.00
50774;BME280;36745;48.544;8.918;2023-05-16T11:16:28;97206.19;;;12.02;99.17
50774;BME280;36745;48.544;8.918;2023-05-16T11:26:35;97208.13;;;11.71;99.76
50774;BME280;36745;48.544;8.918;2023-05-16T11:30:14;97213.75;;;11.67;99.90
50774;BME280;36745;48.544;8.918;2023-05-16T11:33:38;97218.50;;;11.67;100.00
50774;BME280;36745;48.544;8.918;2023-05-16T11:36:58;97221.59;;;11.69;100.00
50774;BME280;36745;48.544;8.918;2023-05-16T11:40:19;97227.63;;;11.55;100.00
50774;BME280;36745;48.544;8.918;2023-05-16T11:43:43;97220.56;;;11.54;100.00
50774;BME280;36745;48.544;8.918;2023-05-16T11:47:04;97222.41;;;11.57;100.00
50774;BME280;36745;48.544;8.918;2023-05-16T11:50:24;97223.13;;;11.48;100.00
50774;BME280;36745;48.544;8.918;2023-05-16T11:53:44;97221.63;;;11.34;100.00
50774;BME280;36745;48.544;8.918;2023-05-16T11:57:03;97231.84;;;11.47;100.00
50774;BME280;36745;48.544;8.918;2023-05-16T12:00:25;97230.78;;;11.44;100.00
50774;BME280;36745;48.544;8.918;2023-05-16T12:03:53;97229.91;;;11.34;100.00
50774;BME280;36745;48.544;8.918;2023-05-16T12:07:14;97231.44;;;11.35;100.00
50774;BME280;36745;48.544;8.918;2023-05-16T12:10:34;97237.63;;;11.40;100.00
50774;BME280;36745;48.544;8.918;2023-05-16T12:13:54;97241.84;;;11.31;99.94
50774;BME280;36745;48.544;8.918;2023-05-16T12:17:14;97242.25;;;11.43;100.00
50774;BME280;36745;48.544;8.918;2023-05-16T12:20:34;97238.59;;;11.46;100.00
50774;BME280;36745;48.544;8.918;2023-05-16T12:23:57;97242.56;;;11.45;100.00
50774;BME280;36745;48.544;8.918;2023-05-16T12:27:26;97252.44;;;11.33;100.00
50774;BME280;36745;48.544;8.918;2023-05-16T12:30:46;97241.63;;;11.39;100.00
50774;BME280;36745;48.544;8.918;2023-05-16T12:34:19;97250.16;;;11.19;100.00
50774;BME280;36745;48.544;8.918;2023-05-16T12:37:42;97248.38;;;11.25;100.00
50774;BME280;36745;48.544;8.918;2023-05-16T12:41:02;97251.56;;;11.23;100.00
50774;BME280;36745;48.544;8.918;2023-05-16T12:44:22;97244.53;;;11.22;100.00
50774;BME280;36745;48.544;8.918;2023-05-16T12:47:44;97247.59;;;11.24;100.00
50774;BME280;36745;48.544;8.918;2023-05-16T12:51:14;97258.84;;;11.30;100.00
50774;BME280;36745;48.544;8.918;2023-05-16T12:54:35;97263.09;;;11.22;100.00
50774;BME280;36745;48.544;8.918;2023-05-16T12:57:55;97264.88;;;11.03;99.78
50774;BME280;36745;48.544;8.918;2023-05-16T13:01:16;97271.44;;;10.84;99.79
50774;BME280;36745;48.544;8.918;2023-05-16T13:04:36;97280.22;;;10.91;100.00
50774;BME280;36745;48.544;8.918;2023-05-16T13:07:55;97271.44;;;10.84;100.00
50774;BME280;36745;48.544;8.918;2023-05-16T13:11:15;97286.22;;;10.77;100.00
50774;BME280;36745;48.544;8.918;2023-05-16T13:14:35;97288.97;;;10.65;99.92
50774;BME280;36745;48.544;8.918;2023-05-16T13:17:55;97291.81;;;10.48;99.62
50774;BME280;36745;48.544;8.918;2023-05-16T13:21:14;97289.38;;;10.38;99.99
50774;BME280;36745;48.544;8.918;2023-05-16T13:24:34;97308.34;;;10.23;100.00
50774;BME280;36745;48.544;8.918;2023-05-16T13:27:54;97296.41;;;10.26;100.00
50774;BME280;36745;48.544;8.918;2023-05-16T13:31:14;97299.16;;;10.14;100.00
50774;BME280;36745;48.544;8.918;2023-05-16T13:34:34;97306.63;;;10.13;100.00
50774;BME280;36745;48.544;8.918;2023-05-16T13:37:54;97306.25;;;10.27;100.00
50774;BME280;36745;48.544;8.918;2023-05-16T13:41:14;97311.00;;;10.39;100.00
50774;BME280;36745;48.544;8.918;2023-05-16T13:44:34;97306.94;;;10.44;100.00
50774;BME280;36745;48.544;8.918;2023-05-16T13:47:54;97315.53;;;10.46;99.74
50774;BME280;36745;48.544;8.918;2023-05-16T13:51:13;97308.91;;;10.43;99.61
50774;BME280;36745;48.544;8.918;2023-05-16T13:54:33;97318.50;;;10.64;99.83
50774;BME280;36745;48.544;8.918;2023-05-16T13:57:53;97314.75;;;10.71;99.43
50774;BME280;36745;48.544;8.918;2023-05-16T14:01:13;97320.63;;;10.73;98.55
50774;BME280;36745;48.544;8.918;2023-05-16T14:04:32;97328.66;;;10.55;97.81
50774;BME280;36745;48.544;8.918;2023-05-16T14:07:52;97323.03;;;10.71;98.72
50774;BME280;36745;48.544;8.918;2023-05-16T14:11:12;97320.81;;;10.91;98.62
50774;BME280;36745;48.544;8.918;2023-05-16T14:14:33;97316.63;;;10.86;97.71
50774;BME280;36745;48.544;8.918;2023-05-16T14:17:53;97317.41;;;10.87;97.46
50774;BME280;36745;48.544;8.918;2023-05-16T14:21:13;97322.28;;;10.83;96.85
50774;BME280;36745;48.544;8.918;2023-05-16T14:24:33;97324.03;;;10.77;96.35
50774;BME280;36745;48.544;8.918;2023-05-16T14:27:53;97324.69;;;10.81;96.45
50774;BME280;36745;48.544;8.918;2023-05-16T14:31:12;97320.06;;;10.78;95.73
50774;BME280;36745;48.544;8.918;2023-05-16T14:34:32;97332.66;;;10.79;95.70
50774;BME280;36745;48.544;8.918;2023-05-16T14:37:52;97324.03;;;10.51;94.20
50774;BME280;36745;48.544;8.918;2023-05-16T14:41:12;97332.84;;;10.46;94.82
50774;BME280;36745;48.544;8.918;2023-05-16T14:44:32;97337.72;;;10.68;95.69
50774;BME280;36745;48.544;8.918;2023-05-16T14:47:51;97342.56;;;10.76;95.65
50774;BME280;36745;48.544;8.918;2023-05-16T14:51:11;97343.53;;;10.70;94.40
50774;BME280;36745;48.544;8.918;2023-05-16T14:54:31;97340.78;;;10.70;94.65
50774;BME280;36745;48.544;8.918;2023-05-16T14:57:51;97348.50;;;10.75;94.59
50774;BME280;36745;48.544;8.918;2023-05-16T15:01:11;97346.75;;;10.81;94.59
50774;BME280;36745;48.544;8.918;2023-05-16T15:04:31;97346.97;;;10.99;95.06
50774;BME280;36745;48.544;8.918;2023-05-16T15:07:50;97346.97;;;10.99;93.50
50774;BME280;36745;48.544;8.918;2023-05-16T15:11:10;97357.38;;;10.95;92.91
50774;BME280;36745;48.544;8.918;2023-05-16T15:14:30;97358.13;;;10.96;93.12
50774;BME280;36745;48.544;8.918;2023-05-16T15:17:50;97353.81;;;11.07;93.08
50774;BME280;36745;48.544;8.918;2023-05-16T15:21:09;97361.53;;;11.12;92.59
50774;BME280;36745;48.544;8.918;2023-05-16T15:24:29;97362.28;;;11.13;92.42
50774;BME280;36745;48.544;8.918;2023-05-16T15:27:49;97368.03;;;11.18;92.26
50774;BME280;36745;48.544;8.918;2023-05-16T15:31:09;97359.31;;;11.20;92.40
50774;BME280;36745;48.544;8.918;2023-05-16T15:34:29;97358.63;;;11.28;92.23
50774;BME280;36745;48.544;8.918;2023-05-16T15:37:48;97360.31;;;11.26;91.58
50774;BME280;36745;48.544;8.918;2023-05-16T15:41:09;97374.66;;;11.08;90.27
50774;BME280;36745;48.544;8.918;2023-05-16T15:44:29;97372.88;;;11.02;90.68
50774;BME280;36745;48.544;8.918;2023-05-16T15:47:49;97376.44;;;11.15;91.26
50774;BME280;36745;48.544;8.918;2023-05-16T15:51:10;97371.69;;;11.28;90.50
50774;BME280;36745;48.544;8.918;2023-05-16T15:54:31;97367.25;;;11.30;90.17
50774;BME280;36745;48.544;8.918;2023-05-16T15:57:52;97374.19;;;11.35;90.34
50774;BME280;36745;48.544;8.918;2023-05-16T16:01:15;97371.09;;;11.46;90.52
50774;BME280;36745;48.544;8.918;2023-05-16T16:04:37;97370.28;;;11.58;90.24
50774;BME280;36745;48.544;8.918;2023-05-16T16:07:56;97364.56;;;11.40;88.56
50774;BME280;36745;48.544;8.918;2023-05-16T16:11:18;97362.84;;;11.33;88.24
50774;BME280;36745;48.544;8.918;2023-05-16T16:14:38;97371.22;;;11.29;87.99
50774;BME280;36745;48.544;8.918;2023-05-16T16:17:58;97376.53;;;11.36;87.92
50774;BME280;36745;48.544;8.918;2023-05-16T16:21:18;97379.84;;;11.31;86.51
50774;BME280;36745;48.544;8.918;2023-05-16T16:24:38;97377.22;;;11.15;86.17
50774;BME280;36745;48.544;8.918;2023-05-16T16:27:57;97383.28;;;11.10;86.60
50774;BME280;36745;48.544;8.918;2023-05-16T16:31:18;97382.81;;;11.24;87.05
50774;BME280;36745;48.544;8.918;2023-05-16T16:34:38;97386.91;;;11.32;86.67
50774;BME280;36745;48.544;8.918;2023-05-16T16:37:57;97385.16;;;11.26;85.84
50774;BME280;36745;48.544;8.918;2023-05-16T16:41:17;97385.34;;;11.31;86.50
50774;BME280;36745;48.544;8.918;2023-05-16T16:44:37;97382.50;;;11.22;84.80
50774;BME280;36745;48.544;8.918;2023-05-16T16:47:57;97392.09;;;11.18;85.71
50774;BME280;36745;48.544;8.918;2023-05-16T16:51:18;97389.09;;;11.12;84.37
50774;BME280;36745;48.544;8.918;2023-05-16T16:54:39;97403.69;;;11.00;84.41
50774;BME280;36745;48.544;8.918;2023-05-16T16:58:00;97402.59;;;11.10;85.26
50774;BME280;36745;48.544;8.918;2023-05-16T17:01:20;97398.63;;;11.11;85.08
50774;BME280;36745;48.544;8.918;2023-05-16T17:04:40;97398.28;;;11.22;85.32
50774;BME280;36745;48.544;8.918;2023-05-16T17:08:00;97408.22;;;11.19;84.16
50774;BME280;36745;48.544;8.918;2023-05-16T17:11:21;97410.97;;;11.19;84.35
50774;BME280;36745;48.544;8.918;2023-05-16T17:14:41;97415.41;;;11.17;83.89
50774;BME280;36745;48.544;8.918;2023-05-16T17:18:01;97412.53;;;11.20;84.45
50774;BME280;36745;48.544;8.918;2023-05-16T17:21:21;97417.13;;;11.23;84.28
50774;BME280;36745;48.544;8.918;2023-05-16T17:24:41;97429.06;;;11.20;83.24
50774;BME280;36745;48.544;8.918;2023-05-16T17:28:01;97421.22;;;11.19;83.29
50774;BME280;36745;48.544;8.918;2023-05-16T17:31:21;97422.44;;;11.30;83.86
50774;BME280;36745;48.544;8.918;2023-05-16T17:34:41;97425.84;;;11.34;83.31
50774;BME280;36745;48.544;8.918;2023-05-16T17:38:00;97431.84;;;11.33;83.46
50774;BME280;36745;48.544;8.918;2023-05-16T17:41:20;97427.28;;;11.39;83.56
50774;BME280;36745;48.544;8.918;2023-05-16T17:44:40;97432.63;;;11.33;82.72
50774;BME280;36745;48.544;8.918;2023-05-16T17:48:00;97435.47;;;11.43;83.35
50774;BME280;36745;48.544;8.918;2023-05-16T17:51:20;97439.78;;;11.44;83.35
50774;BME280;36745;48.544;8.918;2023-05-16T17:54:39;97439.31;;;11.45;83.33